Auto, WV

8:36 PM EDT on October 20, 2014 (GMT -0400)
Bunny's Holler Live Weather | Change Station
CLOSE
Current Station
Personal Weather Station
Location: Auto, WV
Elevation: 2543 ft
Nearby Weather Stations

Elev 2543 ft 37.96 °N, 80.30 °W | Updated 3 seconds ago

Overcast
Overcast
51.6 °F
Feels Like 51.6 °F
N
0.0
Wind Variable Wind from SSE
Gusts 0.0 mph

Today
High -- | Low -- °F
--% Chance of Precip.
Yesterday
High -- | Low -- °F
Precip. -- in
7:35 AM 6:36 PM
Waning Crescent, 8% visible
Pressure 29.97 in
Visibility 10.0 miles
Clouds Scattered Clouds 7500 ft
Scattered Clouds 9000 ft
Scattered Clouds 12000 ft
Dew Point 44 °F
Humidity 74%
Rainfall 0.92 in
Snow Depth Not available.
UV 0.0 out of 12
Pollen 1.60 out of 12
Air Quality Not available.
Flu Activity Sporadic
METAR KLWB 210015Z AUTO 00000KT 10SM SCT075 SCT090 SCT120 11/07 A2997 RMK AO2 T01110066

More Conditions Fewer Conditions

Pressure 29.97 in
Visibility 10.0 miles
Clouds Scattered Clouds 7500 ft
Scattered Clouds 9000 ft
Scattered Clouds 12000 ft
Dew Point 44 °F
Humidity 74%
Rainfall 0.92 in
Snow Depth Not available.
UV 0.0 out of 12
Pollen 1.60 out of 12
Air Quality Not available.
Flu Activity Sporadic
METAR KLWB 210015Z AUTO 00000KT 10SM SCT075 SCT090 SCT120 11/07 A2997 RMK AO2 T01110066

More Conditions Fewer Conditions

10-Day Weather Forecast

Almanac

Astronomy

Oct. 20, 2014 Rise Set
Actual Time 7:35 AM EDT 6:36 PM EDT
Civil Twilight 7:08 AM EDT 7:03 PM EDT
Nautical Twilight 6:37 AM EDT 7:34 PM EDT
Astronomical Twilight 6:07 AM EDT 8:04 PM EDT
Moon 4:24 AM EDT (10/20) 4:56 PM EDT (10/20)
Length of Visible Light 11h 55m
Length of Day
11h 01m
Tomorrow will be 2m 19s shorter.
Waning Crescent, 8% of the Moon is Illuminated
Today
Waning Crescent
Oct 23
New
Oct 30
First Quarter
Nov 6
Full
Nov 14
Last Quarter

Today's Extremes

State Highs State Lows

Community

WunderPhotos

Upload Photos

1,763,566 photos uploaded!

Nearby

Snow Depth

Station Depth Elevation
No new snow has been reported.

Earthquake Activity

City Distance Mag. Time & Date
No recent earthquake activity has been reported nearby.
Minimum magnitude displayed is 2.5.

Coastal Water Temperatures

Place Temperature
No Stations Reporting

Nearby Weather Stations